createdAt,value
2019-02-07T00:01:52.791Z,29.02
2019-02-07T00:04:18.819Z,26.35
2019-02-07T00:06:44.844Z,28.52
2019-02-07T00:09:10.889Z,28.02
2019-02-07T00:11:36.919Z,28.42
2019-02-07T00:14:02.958Z,27.37
2019-02-07T00:16:29.034Z,28.85
2019-02-07T00:18:55.138Z,27.65
2019-02-07T00:21:21.162Z,26.50
2019-02-07T00:23:47.222Z,26.62
2019-02-07T00:26:13.733Z,26.95
2019-02-07T00:28:42.605Z,26.25
2019-02-07T00:31:08.643Z,27.92
2019-02-07T00:33:34.715Z,27.60
2019-02-07T00:36:00.773Z,28.50
2019-02-07T00:38:27.547Z,27.62
2019-02-07T00:40:53.575Z,29.92
2019-02-07T00:43:19.598Z,29.05
2019-02-07T00:45:45.635Z,29.87
2019-02-07T00:48:11.677Z,30.80
2019-02-07T00:50:37.713Z,27.65
2019-02-07T00:53:03.738Z,26.30
2019-02-07T00:55:29.779Z,26.77
2019-02-07T00:57:56.613Z,26.62
2019-02-07T01:00:24.394Z,28.30
2019-02-07T01:02:51.168Z,27.48
2019-02-07T01:05:17.194Z,25.73
2019-02-07T01:07:43.299Z,25.77
2019-02-07T01:10:09.355Z,26.58
2019-02-07T01:12:35.408Z,26.15
2019-02-07T01:15:02.525Z,27.40
2019-02-07T01:17:28.339Z,27.23
2019-02-07T01:19:54.382Z,26.33
2019-02-07T01:22:20.410Z,26.00
2019-02-07T01:24:46.568Z,27.08
2019-02-07T01:27:13.002Z,24.63
2019-02-07T01:29:39.758Z,30.50
2019-02-07T01:32:05.783Z,29.37
2019-02-07T01:34:31.823Z,28.48
2019-02-07T01:36:57.858Z,29.55
2019-02-07T01:39:23.890Z,28.95
2019-02-07T01:41:49.938Z,26.42
2019-02-07T01:44:15.998Z,31.08
2019-02-07T01:46:42.755Z,27.65
2019-02-07T01:49:08.797Z,28.05
2019-02-07T01:51:34.827Z,29.10
2019-02-07T01:54:00.826Z,27.33
2019-02-07T01:56:26.888Z,26.40
2019-02-07T01:58:52.934Z,28.40
2019-02-07T02:01:18.976Z,27.23
2019-02-07T02:03:45.789Z,26.62
2019-02-07T02:06:11.836Z,28.05
2019-02-07T02:08:38.643Z,27.20
2019-02-07T02:11:04.684Z,28.25
2019-02-07T02:13:30.747Z,25.52
2019-02-07T02:15:56.785Z,26.73
2019-02-07T02:18:22.842Z,25.65
2019-02-07T02:20:48.926Z,28.75
2019-02-07T02:23:14.978Z,27.75
2019-02-07T02:25:41.015Z,27.90
2019-02-07T02:28:07.109Z,26.83
2019-02-07T02:30:33.150Z,26.02
2019-02-07T02:32:59.190Z,28.23
2019-02-07T02:35:25.239Z,25.70
2019-02-07T02:37:51.328Z,27.95
2019-02-07T02:40:17.358Z,27.10
2019-02-07T02:42:43.388Z,26.90
2019-02-07T02:45:11.393Z,25.25
2019-02-07T02:47:38.176Z,29.80
2019-02-07T02:50:04.213Z,28.90
2019-02-07T02:52:30.286Z,24.85
2019-02-07T02:54:57.081Z,26.90
2019-02-07T02:57:23.135Z,28.23
2019-02-07T02:59:49.173Z,24.10
2019-02-07T03:02:22.204Z,27.27
2019-02-07T03:04:51.095Z,28.70
2019-02-07T03:07:21.031Z,29.15
2019-02-07T03:09:49.885Z,28.80
2019-02-07T03:12:15.981Z,28.38
2019-02-07T03:14:44.812Z,26.83
2019-02-07T03:17:10.912Z,27.40
2019-02-07T03:22:31.465Z,25.83
2019-02-07T03:24:58.292Z,25.92
2019-02-07T03:27:26.071Z,28.38
2019-02-07T03:30:10.071Z,26.00
2019-02-07T03:32:51.865Z,25.27
2019-02-07T03:35:19.450Z,27.15
2019-02-07T03:38:05.950Z,27.58
2019-02-07T03:40:31.975Z,28.00
2019-02-07T03:42:58.030Z,26.75
2019-02-07T03:45:40.832Z,25.58
2019-02-07T03:48:06.866Z,24.05
2019-02-07T03:50:36.751Z,24.00
2019-02-07T03:53:08.759Z,25.52
2019-02-07T03:55:37.608Z,23.75
2019-02-07T03:58:14.430Z,24.37
2019-02-07T04:00:46.397Z,25.25
2019-02-07T04:03:29.266Z,24.35
2019-02-07T04:05:56.302Z,26.52
2019-02-07T04:08:38.088Z,25.15
2019-02-07T04:11:10.091Z,25.62
2019-02-07T04:13:42.076Z,25.12
2019-02-07T04:16:15.182Z,28.70
2019-02-07T04:18:35.940Z,29.95
2019-02-07T04:21:06.777Z,25.95
2019-02-07T04:23:50.584Z,27.75
2019-02-07T04:26:20.387Z,23.52
2019-02-07T04:28:52.513Z,23.67
2019-02-07T04:31:19.813Z,25.30
2019-02-07T04:34:01.546Z,27.42
2019-02-07T04:36:29.392Z,23.48
2019-02-07T04:38:57.229Z,26.85
2019-02-07T04:41:29.465Z,23.38
2019-02-07T04:43:55.569Z,23.55
2019-02-07T04:46:27.060Z,25.92
2019-02-07T04:48:55.582Z,26.92
2019-02-07T04:51:37.605Z,27.42
2019-02-07T04:54:18.569Z,26.52
2019-02-07T04:56:45.422Z,24.92
2019-02-07T04:59:17.246Z,26.58
2019-02-07T05:01:48.160Z,25.50
2019-02-07T05:04:16.965Z,25.25
2019-02-07T05:07:01.850Z,25.80
2019-02-07T05:09:30.560Z,25.10
2019-02-07T05:11:58.613Z,24.77
2019-02-07T05:14:28.493Z,26.55
2019-02-07T05:17:05.310Z,26.02
2019-02-07T05:19:32.358Z,24.90
2019-02-07T05:22:03.188Z,24.73
2019-02-07T05:24:29.203Z,24.58
2019-02-07T05:26:57.037Z,24.30
2019-02-07T05:29:23.927Z,26.85
2019-02-07T05:32:05.736Z,25.65
2019-02-07T05:34:31.768Z,24.10
2019-02-07T05:36:57.886Z,23.30
2019-02-07T05:39:25.671Z,26.45
2019-02-07T05:41:53.782Z,24.63
2019-02-07T05:44:19.825Z,23.33
2019-02-07T05:46:51.282Z,23.40
2019-02-07T05:49:21.946Z,24.37
2019-02-07T05:51:50.718Z,24.73
2019-02-07T05:54:23.575Z,22.98
2019-02-07T05:56:49.651Z,26.87
2019-02-07T05:59:33.682Z,24.15
2019-02-07T06:02:00.512Z,24.35
2019-02-07T06:04:37.354Z,26.15
2019-02-07T06:07:04.279Z,23.80
2019-02-07T06:09:35.208Z,25.27
2019-02-07T06:12:05.083Z,26.50
2019-02-07T06:14:34.709Z,26.60
2019-02-07T06:17:03.504Z,26.83
2019-02-07T06:19:32.546Z,25.08
2019-02-07T06:21:58.552Z,26.00
2019-02-07T06:24:28.377Z,24.48
2019-02-07T06:26:54.392Z,24.95
2019-02-07T06:29:22.521Z,25.45
2019-02-07T06:31:52.372Z,26.87
2019-02-07T06:34:29.045Z,24.23
2019-02-07T06:36:54.207Z,25.88
2019-02-07T06:39:28.524Z,24.80
2019-02-07T06:42:05.199Z,24.77
2019-02-07T06:44:31.268Z,26.75
2019-02-07T06:47:00.093Z,24.63
2019-02-07T06:49:32.961Z,25.20
2019-02-07T06:52:17.738Z,25.95
2019-02-07T06:55:01.330Z,22.95
2019-02-07T06:57:42.320Z,25.15
2019-02-07T07:00:14.145Z,25.48
2019-02-07T07:02:40.188Z,24.75
2019-02-07T07:05:21.136Z,26.08
2019-02-07T07:07:47.130Z,26.80
2019-02-07T07:10:16.730Z,26.13
2019-02-07T07:12:43.543Z,24.90
2019-02-07T07:15:09.531Z,24.95
2019-02-07T07:17:36.340Z,26.77
2019-02-07T07:20:08.393Z,24.00
2019-02-07T07:22:35.172Z,23.95
2019-02-07T07:25:01.949Z,25.98
2019-02-07T07:27:31.721Z,24.92
2019-02-07T07:30:13.453Z,25.35
2019-02-07T07:32:41.683Z,24.92
2019-02-07T07:35:24.078Z,23.85
2019-02-07T07:37:55.957Z,24.50
2019-02-07T07:40:23.806Z,26.27
2019-02-07T07:42:50.826Z,26.92
2019-02-07T07:45:19.849Z,27.90
2019-02-07T07:48:02.704Z,27.52
2019-02-07T07:50:28.802Z,27.55
2019-02-07T07:53:02.016Z,26.27
2019-02-07T07:55:46.575Z,28.40
2019-02-07T07:58:15.486Z,27.73
2019-02-07T08:00:57.220Z,27.30
2019-02-07T08:03:33.268Z,29.12
2019-02-07T08:06:00.144Z,25.20
2019-02-07T08:08:32.173Z,26.48
2019-02-07T08:11:06.834Z,29.17
2019-02-07T08:13:30.881Z,26.00
2019-02-07T08:16:00.700Z,28.15
2019-02-07T08:18:31.481Z,27.50
2019-02-07T08:21:03.644Z,28.45
2019-02-07T08:23:35.613Z,25.98
2019-02-07T08:26:07.691Z,29.27
2019-02-07T08:28:34.541Z,26.17
2019-02-07T08:31:13.325Z,28.40
2019-02-07T08:33:55.160Z,25.75
2019-02-07T08:36:25.891Z,27.02
2019-02-07T08:38:52.666Z,29.42
2019-02-07T08:41:19.705Z,27.55
2019-02-07T08:44:00.681Z,28.62
2019-02-07T08:46:44.721Z,29.55
2019-02-07T08:49:11.765Z,28.95
2019-02-07T08:51:37.795Z,28.83
2019-02-07T08:54:07.666Z,27.42
2019-02-07T08:56:39.695Z,26.15
2019-02-07T08:59:12.572Z,26.98
2019-02-07T09:01:38.575Z,26.77
2019-02-07T09:04:10.633Z,28.75
2019-02-07T09:06:54.600Z,26.12
2019-02-07T09:09:36.381Z,27.02
2019-02-07T09:12:02.386Z,27.35
2019-02-07T09:14:29.169Z,26.70
2019-02-07T09:16:55.996Z,26.80
2019-02-07T09:19:24.865Z,28.58
2019-02-07T09:21:52.685Z,28.90
2019-02-07T09:24:18.718Z,29.45
2019-02-07T09:26:45.570Z,29.95
2019-02-07T09:29:18.356Z,30.23
2019-02-07T09:31:44.375Z,30.80
2019-02-07T09:34:16.640Z,29.60
2019-02-07T09:36:46.313Z,27.55
2019-02-07T09:39:18.310Z,28.38
2019-02-07T09:41:46.329Z,30.10
2019-02-07T09:44:12.362Z,30.75
2019-02-07T09:46:40.142Z,30.55
2019-02-07T09:49:08.942Z,30.08
2019-02-07T09:51:33.739Z,33.95
2019-02-07T09:54:05.614Z,30.00
2019-02-07T09:56:32.419Z,32.35
2019-02-07T09:58:58.448Z,29.85
2019-02-07T10:01:24.523Z,29.55
2019-02-07T10:03:55.613Z,30.90
2019-02-07T10:06:27.433Z,27.98
2019-02-07T10:09:09.195Z,31.42
2019-02-07T10:11:41.206Z,30.17
2019-02-07T10:14:13.161Z,28.65
2019-02-07T10:16:40.998Z,30.30
2019-02-07T10:19:11.838Z,28.98
2019-02-07T10:21:41.702Z,27.52
2019-02-07T10:24:09.838Z,27.27
2019-02-07T10:26:40.723Z,28.50
2019-02-07T10:29:08.778Z,26.95
2019-02-07T10:31:40.613Z,25.65
2019-02-07T10:34:12.722Z,26.12
2019-02-07T10:36:39.796Z,29.30
2019-02-07T10:39:13.169Z,27.20
2019-02-07T10:41:56.747Z,29.53
2019-02-07T10:44:23.637Z,29.40
2019-02-07T10:46:53.259Z,27.50
2019-02-07T10:49:19.346Z,28.70
2019-02-07T10:51:48.421Z,27.63
2019-02-07T10:54:24.394Z,28.10
2019-02-07T10:56:54.313Z,28.00
2019-02-07T10:59:25.394Z,28.38
2019-02-07T11:01:51.447Z,27.87
2019-02-07T11:04:18.478Z,26.30
2019-02-07T11:06:50.748Z,27.63
2019-02-07T11:09:16.760Z,28.93
2019-02-07T11:12:00.584Z,26.77
2019-02-07T11:14:32.640Z,28.43
2019-02-07T11:17:03.832Z,28.90
2019-02-07T11:19:33.791Z,29.45
2019-02-07T11:22:06.744Z,33.77
2019-02-07T11:24:45.512Z,32.20
2019-02-07T11:27:17.136Z,40.60
2019-02-07T11:29:43.165Z,32.70
2019-02-07T11:32:09.160Z,29.07
2019-02-07T11:34:51.954Z,30.27
2019-02-07T11:37:18.757Z,26.93
2019-02-07T11:39:48.376Z,31.27
2019-02-07T11:42:20.533Z,27.87
2019-02-07T11:45:01.371Z,30.35
2019-02-07T11:47:29.197Z,29.30
2019-02-07T11:50:11.950Z,29.00
2019-02-07T11:52:41.767Z,28.37
2019-02-07T11:55:11.574Z,26.87
2019-02-07T11:57:42.395Z,26.47
2019-02-07T12:00:14.220Z,26.13
2019-02-07T12:02:46.054Z,27.03
2019-02-07T12:05:18.092Z,29.50
2019-02-07T12:07:58.986Z,28.50
2019-02-07T12:10:27.806Z,30.60
2019-02-07T12:12:53.797Z,29.20
2019-02-07T12:15:30.584Z,24.60
2019-02-07T12:17:56.609Z,25.10
2019-02-07T12:20:23.712Z,24.47
2019-02-07T12:22:49.707Z,24.90
2019-02-07T12:25:16.546Z,21.60
2019-02-07T12:27:43.349Z,23.50
2019-02-07T12:30:28.181Z,22.87
2019-02-07T12:33:09.144Z,21.93
2019-02-07T12:35:35.244Z,22.00
2019-02-07T12:38:07.285Z,22.50
2019-02-07T12:40:37.264Z,21.70
2019-02-07T12:43:19.016Z,23.13
2019-02-07T12:45:48.072Z,20.67
2019-02-07T12:48:34.867Z,22.57
2019-02-07T12:51:00.877Z,21.10
2019-02-07T12:53:27.665Z,21.10
2019-02-07T12:55:54.700Z,20.40
2019-02-07T12:58:23.567Z,20.83
2019-02-07T13:00:54.475Z,21.63
2019-02-07T13:03:20.493Z,22.17
2019-02-07T13:05:49.336Z,20.47
2019-02-07T13:08:15.341Z,20.37
2019-02-07T13:10:41.372Z,20.10
2019-02-07T13:13:10.250Z,19.30
2019-02-07T13:15:39.065Z,20.20
2019-02-07T13:18:11.090Z,22.30
2019-02-07T13:20:51.955Z,21.13
2019-02-07T13:23:32.801Z,21.33
2019-02-07T13:25:58.840Z,20.20
2019-02-07T13:28:24.960Z,20.07
2019-02-07T13:30:56.883Z,20.93
2019-02-07T13:33:28.893Z,21.50
2019-02-07T13:35:57.731Z,21.50
2019-02-07T13:38:29.353Z,20.43
2019-02-07T13:41:00.113Z,19.60
2019-02-07T13:43:27.110Z,19.60
2019-02-07T13:46:03.069Z,17.80
2019-02-07T13:48:31.082Z,19.03
2019-02-07T13:51:00.889Z,20.07
2019-02-07T13:53:33.688Z,21.07
2019-02-07T13:55:59.732Z,20.70
2019-02-07T13:58:28.605Z,20.57
2019-02-07T14:01:01.354Z,19.50
2019-02-07T14:03:32.242Z,21.20
2019-02-07T14:05:59.085Z,21.40
2019-02-07T14:08:37.836Z,20.63
2019-02-07T14:10:54.172Z,20.20
2019-02-07T14:13:36.986Z,18.50
2019-02-07T14:16:03.793Z,18.40
2019-02-07T14:18:35.826Z,17.43
2019-02-07T14:21:18.661Z,17.27
2019-02-07T14:23:44.666Z,16.30
2019-02-07T14:26:10.682Z,17.10
2019-02-07T14:28:36.731Z,18.33
2019-02-07T14:31:06.854Z,18.77
2019-02-07T14:33:32.898Z,16.90
2019-02-07T14:35:58.920Z,18.27
2019-02-07T14:38:25.761Z,15.90
2019-02-07T14:40:57.603Z,17.03
2019-02-07T14:43:26.256Z,16.10
2019-02-07T14:45:54.032Z,18.07
2019-02-07T14:48:20.801Z,18.97
2019-02-07T14:50:46.944Z,18.47
2019-02-07T14:53:12.822Z,18.27
2019-02-07T14:55:38.872Z,18.00
2019-02-07T14:58:04.899Z,17.93
2019-02-07T15:00:30.936Z,16.20
2019-02-07T15:02:57.016Z,16.83
2019-02-07T15:05:28.200Z,18.20
2019-02-07T15:07:54.295Z,17.50
2019-02-07T15:10:20.344Z,19.10
2019-02-07T15:12:46.455Z,19.13
2019-02-07T15:15:12.826Z,19.23
2019-02-07T15:17:39.003Z,17.77
2019-02-07T15:20:06.272Z,16.40
2019-02-07T15:22:33.078Z,19.17
2019-02-07T15:24:59.103Z,19.17
2019-02-07T15:27:25.124Z,18.77
2019-02-07T15:29:51.210Z,17.23
2019-02-07T15:32:17.423Z,19.50
2019-02-07T15:34:43.574Z,18.20
2019-02-07T15:37:09.864Z,16.33
2019-02-07T15:39:36.007Z,16.53
2019-02-07T15:42:02.159Z,16.90
2019-02-07T15:44:30.364Z,18.07
2019-02-07T15:46:56.503Z,17.70
2019-02-07T15:49:23.683Z,18.77
2019-02-07T15:51:51.485Z,18.47
2019-02-07T15:54:17.509Z,15.53
2019-02-07T15:56:44.544Z,17.90
2019-02-07T15:59:15.925Z,16.67
2019-02-07T16:01:44.015Z,17.80
2019-02-07T16:04:10.722Z,16.30
2019-02-07T16:06:37.117Z,17.60
2019-02-07T16:09:03.210Z,17.40
2019-02-07T16:11:29.276Z,16.37
2019-02-07T16:13:55.294Z,17.27
2019-02-07T16:16:21.293Z,16.60
2019-02-07T16:18:47.354Z,15.37
2019-02-07T16:21:13.406Z,17.57
2019-02-07T16:23:39.438Z,16.90
2019-02-07T16:26:05.701Z,15.07
2019-02-07T16:28:31.993Z,14.10
2019-02-07T16:30:58.077Z,17.20
2019-02-07T16:33:24.085Z,17.00
2019-02-07T16:35:50.152Z,15.37
2019-02-07T16:38:16.287Z,15.93
2019-02-07T16:40:42.304Z,16.10
2019-02-07T16:43:08.347Z,16.93
2019-02-07T16:45:35.356Z,16.43
2019-02-07T16:48:01.370Z,16.97
2019-02-07T16:50:28.354Z,16.00
2019-02-07T16:52:54.519Z,15.73
2019-02-07T16:55:20.574Z,16.53
2019-02-07T16:57:46.583Z,15.60
2019-02-07T17:00:23.556Z,14.17
2019-02-07T17:02:49.631Z,16.43
2019-02-07T17:05:15.779Z,15.40
2019-02-07T17:07:42.729Z,15.20
2019-02-07T17:10:09.714Z,16.30
2019-02-07T17:12:35.840Z,17.77
2019-02-07T17:15:01.848Z,17.67
2019-02-07T17:17:27.892Z,15.93
2019-02-07T17:19:54.100Z,16.93
2019-02-07T17:22:20.961Z,15.60
2019-02-07T17:24:46.985Z,14.97
2019-02-07T17:27:13.173Z,15.93
2019-02-07T17:29:39.227Z,14.97
2019-02-07T17:32:07.303Z,17.10
2019-02-07T17:34:33.352Z,16.27
2019-02-07T17:37:00.409Z,15.70
2019-02-07T17:39:27.393Z,15.67
2019-02-07T17:41:53.410Z,14.97
2019-02-07T17:44:19.493Z,14.73
2019-02-07T17:46:46.128Z,15.67
2019-02-07T17:49:12.269Z,14.20
2019-02-07T17:51:39.068Z,14.60
2019-02-07T17:54:05.053Z,17.30
2019-02-07T17:56:31.878Z,15.93
2019-02-07T17:58:58.088Z,16.23
2019-02-07T18:01:24.120Z,15.23
2019-02-07T18:03:50.125Z,14.50
2019-02-07T18:06:16.138Z,15.20
2019-02-07T18:08:42.127Z,15.27
2019-02-07T18:11:08.136Z,15.67
2019-02-07T18:13:36.521Z,13.70
2019-02-07T18:16:04.128Z,15.20
2019-02-07T18:18:30.149Z,14.97
2019-02-07T18:20:56.181Z,15.47
2019-02-07T18:23:22.186Z,15.37
2019-02-07T18:25:48.208Z,14.20
2019-02-07T18:28:14.323Z,14.33
2019-02-07T18:30:40.312Z,14.27
2019-02-07T18:33:06.290Z,15.00
2019-02-07T18:35:32.407Z,12.43
2019-02-07T18:37:58.430Z,15.10
2019-02-07T18:40:25.412Z,14.90
2019-02-07T18:42:51.557Z,13.47
2019-02-07T18:45:17.645Z,14.57
2019-02-07T18:47:46.327Z,15.48
2019-02-07T18:50:32.194Z,14.67
2019-02-07T18:52:59.170Z,14.00
2019-02-07T18:55:26.390Z,13.97
2019-02-07T18:57:53.053Z,13.60
2019-02-07T19:00:23.053Z,14.73
2019-02-07T19:02:49.301Z,15.03
2019-02-07T19:05:15.778Z,13.53
2019-02-07T19:07:42.273Z,15.80
2019-02-07T19:10:31.006Z,13.00
2019-02-07T19:12:57.297Z,13.00
2019-02-07T19:15:25.859Z,14.23
2019-02-07T19:17:52.199Z,13.60
2019-02-07T19:20:18.498Z,13.37
2019-02-07T19:22:44.809Z,15.10
2019-02-07T19:25:11.442Z,14.00
2019-02-07T19:27:37.614Z,14.70
2019-02-07T19:30:19.846Z,13.83
2019-02-07T19:32:46.071Z,14.20
2019-02-07T19:35:12.211Z,15.40
2019-02-07T19:37:38.524Z,14.73
2019-02-07T19:40:05.084Z,13.20
2019-02-07T19:42:31.385Z,12.60
2019-02-07T19:44:57.586Z,13.70
2019-02-07T19:47:23.812Z,13.40
2019-02-07T19:49:50.629Z,14.17
2019-02-07T19:52:17.029Z,14.27
2019-02-07T19:54:43.121Z,14.83
2019-02-07T19:57:09.295Z,14.27
2019-02-07T19:59:35.480Z,13.73
2019-02-07T20:02:02.694Z,12.37
2019-02-07T20:04:28.838Z,12.03
2019-02-07T20:06:55.330Z,13.50
2019-02-07T20:09:21.654Z,12.47
2019-02-07T20:11:47.805Z,12.70
2019-02-07T20:14:15.793Z,11.90
2019-02-07T20:16:42.206Z,13.07
2019-02-07T20:19:08.785Z,12.20
2019-02-07T20:21:35.891Z,12.80
2019-02-07T20:24:02.227Z,12.10
2019-02-07T20:26:28.680Z,12.43
2019-02-07T20:28:55.172Z,12.27
2019-02-07T20:31:21.572Z,12.27
2019-02-07T20:33:47.902Z,11.67
2019-02-07T20:36:15.040Z,12.37
2019-02-07T20:38:42.164Z,11.27
2019-02-07T20:41:11.588Z,13.80
2019-02-07T20:43:37.630Z,13.07
2019-02-07T20:46:03.686Z,14.20
2019-02-07T20:48:29.731Z,12.47
2019-02-07T20:50:57.689Z,13.90
2019-02-07T20:53:22.265Z,13.43
2019-02-07T20:55:48.516Z,12.33
2019-02-07T20:58:14.790Z,13.37
2019-02-07T21:00:40.802Z,13.40
2019-02-07T21:03:06.818Z,12.33
2019-02-07T21:05:32.968Z,12.23
2019-02-07T21:07:59.014Z,13.20
2019-02-07T21:10:29.995Z,13.00
2019-02-07T21:12:56.010Z,11.73
2019-02-07T21:15:22.009Z,12.90
2019-02-07T21:17:47.997Z,12.60
2019-02-07T21:20:14.967Z,11.60
2019-02-07T21:22:41.724Z,11.73
2019-02-07T21:25:10.341Z,11.10
2019-02-07T21:27:36.387Z,12.27
2019-02-07T21:30:02.412Z,11.80
2019-02-07T21:32:28.448Z,10.97
2019-02-07T21:34:54.456Z,10.90
2019-02-07T21:37:20.495Z,11.83
2019-02-07T21:39:46.485Z,11.33
2019-02-07T21:42:12.484Z,9.97
2019-02-07T21:44:38.470Z,10.60
2019-02-07T21:47:04.460Z,17.23
2019-02-07T21:49:30.475Z,14.13
2019-02-07T21:51:57.635Z,12.40
2019-02-07T21:54:23.686Z,10.50
2019-02-07T21:56:49.707Z,10.87
2019-02-07T21:59:15.816Z,11.57
2019-02-07T22:01:41.833Z,10.73
2019-02-07T22:04:07.830Z,11.23
2019-02-07T22:06:34.881Z,12.37
2019-02-07T22:09:00.917Z,11.10
2019-02-07T22:11:26.967Z,10.00
2019-02-07T22:13:52.969Z,11.27
2019-02-07T22:16:19.201Z,10.90
2019-02-07T22:18:45.384Z,10.50
2019-02-07T22:21:11.458Z,10.07
2019-02-07T22:23:37.566Z,11.20
2019-02-07T22:26:03.596Z,9.60
2019-02-07T22:28:29.638Z,9.60
2019-02-07T22:30:55.661Z,9.50
2019-02-07T22:33:21.684Z,10.10
2019-02-07T22:35:47.689Z,9.90
2019-02-07T22:38:13.732Z,9.90
2019-02-07T22:40:39.769Z,8.70
2019-02-07T22:43:06.521Z,9.03
2019-02-07T22:45:32.523Z,10.20
2019-02-07T22:47:58.607Z,9.30
2019-02-07T22:50:25.696Z,9.53
2019-02-07T22:52:56.991Z,10.07
2019-02-07T22:55:19.644Z,9.13
2019-02-07T22:57:45.633Z,9.63
2019-02-07T23:00:46.662Z,9.67
2019-02-07T23:03:13.472Z,9.20
2019-02-07T23:05:39.517Z,8.50
2019-02-07T23:08:05.494Z,7.33
2019-02-07T23:10:31.527Z,8.10
2019-02-07T23:12:57.540Z,9.73
2019-02-07T23:15:23.566Z,9.33
2019-02-07T23:17:49.593Z,9.03
2019-02-07T23:20:15.603Z,8.20
2019-02-07T23:22:41.617Z,7.83
2019-02-07T23:25:07.642Z,7.67
2019-02-07T23:27:33.654Z,8.53
2019-02-07T23:29:59.696Z,8.20
2019-02-07T23:32:25.728Z,8.90
2019-02-07T23:34:51.721Z,9.40
2019-02-07T23:37:17.735Z,7.70
2019-02-07T23:39:43.785Z,7.80
2019-02-07T23:42:09.789Z,7.90
2019-02-07T23:44:35.808Z,7.70
2019-02-07T23:47:01.818Z,6.90
2019-02-07T23:49:27.862Z,7.60
2019-02-07T23:51:53.862Z,7.53
2019-02-07T23:54:20.773Z,7.30
2019-02-07T23:56:46.774Z,7.13
2019-02-07T23:59:12.789Z,6.73
